Dallas, Texas
Traffic Map
Current Weather Conditions
Dallas, Texas
Broken Clouds
Broken Clouds
31°
Feels Like: 33°
Wind Chill: 31° Ceiling: 16000
Heat Index: 33° Visibility: 10mi
Dew Point: 19° Wind: 0mph
Humidity: 49% Direction: ° ()
Pressure: 29.92in Gusts: 0mph
Raw Report DataKDAL 291753Z 00000KT 10SM FEW027 BKN160 31/19 A2992 RMK AO2 SLP123 T03110194 10311 20222 58003
Traffic Incident Summary
Active as of:
Severity:
Category:
InformationThere was an issue retrieving the traffic information for this location. Please try a different location or try again shortly.
Advertisements
Track Severe Weather on mobile